sensor_id;sensor_type;location;lat;lon;timestamp;pressure;altitude;pressure_sealevel;temperature;humidity
5062;BME280;2351;50.812;12.872;2023-04-26T00:01:28;97775.78;;;3.37;81.73
5062;BME280;2351;50.812;12.872;2023-04-26T00:04:00;97778.56;;;3.34;81.59
5062;BME280;2351;50.812;12.872;2023-04-26T00:06:32;97775.19;;;3.31;81.27
5062;BME280;2351;50.812;12.872;2023-04-26T00:09:04;97786.75;;;3.27;81.55
5062;BME280;2351;50.812;12.872;2023-04-26T00:11:36;97786.19;;;3.22;81.61
5062;BME280;2351;50.812;12.872;2023-04-26T00:14:09;97784.59;;;3.20;81.87
5062;BME280;2351;50.812;12.872;2023-04-26T00:16:40;97786.38;;;3.19;81.42
5062;BME280;2351;50.812;12.872;2023-04-26T00:19:12;97793.56;;;3.15;81.44
5062;BME280;2351;50.812;12.872;2023-04-26T00:21:45;97788.50;;;3.12;81.42
5062;BME280;2351;50.812;12.872;2023-04-26T00:24:16;97789.53;;;3.10;81.61
5062;BME280;2351;50.812;12.872;2023-04-26T00:26:48;97782.72;;;3.07;81.48
5062;BME280;2351;50.812;12.872;2023-04-26T00:29:21;97794.94;;;3.07;81.75
5062;BME280;2351;50.812;12.872;2023-04-26T00:31:53;97789.88;;;3.04;81.54
5062;BME280;2351;50.812;12.872;2023-04-26T00:34:30;97795.09;;;3.04;81.74
5062;BME280;2351;50.812;12.872;2023-04-26T00:37:03;97799.56;;;3.01;82.41
5062;BME280;2351;50.812;12.872;2023-04-26T00:39:35;97799.84;;;2.97;83.29
5062;BME280;2351;50.812;12.872;2023-04-26T00:42:07;97793.97;;;2.93;83.58
5062;BME280;2351;50.812;12.872;2023-04-26T00:44:40;97793.03;;;2.94;84.00
5062;BME280;2351;50.812;12.872;2023-04-26T00:47:12;97790.59;;;2.91;84.17
5062;BME280;2351;50.812;12.872;2023-04-26T00:49:44;97796.00;;;2.88;84.86
5062;BME280;2351;50.812;12.872;2023-04-26T00:52:15;97795.13;;;2.88;84.84
5062;BME280;2351;50.812;12.872;2023-04-26T00:54:48;97791.69;;;2.87;85.42
5062;BME280;2351;50.812;12.872;2023-04-26T00:57:20;97799.38;;;2.90;85.08
5062;BME280;2351;50.812;12.872;2023-04-26T00:59:53;97802.75;;;2.92;84.91
5062;BME280;2351;50.812;12.872;2023-04-26T01:02:25;97802.75;;;2.92;85.37
5062;BME280;2351;50.812;12.872;2023-04-26T01:04:57;97803.72;;;2.90;85.63
5062;BME280;2351;50.812;12.872;2023-04-26T01:07:29;97807.97;;;2.92;85.45
5062;BME280;2351;50.812;12.872;2023-04-26T01:10:01;97806.09;;;2.94;85.53
5062;BME280;2351;50.812;12.872;2023-04-26T01:12:35;97813.19;;;2.92;85.50
5062;BME280;2351;50.812;12.872;2023-04-26T01:15:09;97809.66;;;2.93;85.96
5062;BME280;2351;50.812;12.872;2023-04-26T01:17:45;97807.97;;;2.92;85.71
5062;BME280;2351;50.812;12.872;2023-04-26T01:20:16;97818.44;;;2.92;85.41
5062;BME280;2351;50.812;12.872;2023-04-26T01:22:49;97820.28;;;2.90;85.25
5062;BME280;2351;50.812;12.872;2023-04-26T01:25:21;97813.53;;;2.86;86.09
5062;BME280;2351;50.812;12.872;2023-04-26T01:27:53;97819.78;;;2.83;85.96
5062;BME280;2351;50.812;12.872;2023-04-26T01:30:25;97817.25;;;2.82;85.44
5062;BME280;2351;50.812;12.872;2023-04-26T01:32:57;97811.25;;;2.80;85.53
5062;BME280;2351;50.812;12.872;2023-04-26T01:35:28;97814.03;;;2.77;85.78
5062;BME280;2351;50.812;12.872;2023-04-26T01:38:01;97818.78;;;2.70;86.17
5062;BME280;2351;50.812;12.872;2023-04-26T01:40:33;97815.41;;;2.68;86.01
5062;BME280;2351;50.812;12.872;2023-04-26T01:43:05;97812.03;;;2.66;85.59
5062;BME280;2351;50.812;12.872;2023-04-26T01:45:37;97813.31;;;2.59;86.15
5062;BME280;2351;50.812;12.872;2023-04-26T01:48:08;97822.34;;;2.53;86.72
5062;BME280;2351;50.812;12.872;2023-04-26T01:50:40;97822.59;;;2.48;87.02
5062;BME280;2351;50.812;12.872;2023-04-26T01:53:13;97821.81;;;2.46;86.65
5062;BME280;2351;50.812;12.872;2023-04-26T01:55:45;97824.44;;;2.46;86.39
5062;BME280;2351;50.812;12.872;2023-04-26T01:58:17;97823.69;;;2.44;86.73
5062;BME280;2351;50.812;12.872;2023-04-26T02:00:48;97827.22;;;2.43;86.42
5062;BME280;2351;50.812;12.872;2023-04-26T02:03:20;97816.03;;;2.41;86.23
5062;BME280;2351;50.812;12.872;2023-04-26T02:05:52;97821.50;;;2.36;86.43
5062;BME280;2351;50.812;12.872;2023-04-26T02:08:25;97814.66;;;2.34;86.17
5062;BME280;2351;50.812;12.872;2023-04-26T02:10:57;97820.16;;;2.29;85.99
5062;BME280;2351;50.812;12.872;2023-04-26T02:13:29;97822.00;;;2.27;85.91
5062;BME280;2351;50.812;12.872;2023-04-26T02:16:00;97814.94;;;2.29;85.67
5062;BME280;2351;50.812;12.872;2023-04-26T02:18:32;97824.47;;;2.30;86.05
5062;BME280;2351;50.812;12.872;2023-04-26T02:21:06;97822.56;;;2.32;85.99
5062;BME280;2351;50.812;12.872;2023-04-26T02:23:40;97816.44;;;2.33;86.17
5062;BME280;2351;50.812;12.872;2023-04-26T02:26:12;97827.47;;;2.38;86.19
5062;BME280;2351;50.812;12.872;2023-04-26T02:28:44;97820.41;;;2.40;86.36
5062;BME280;2351;50.812;12.872;2023-04-26T02:31:15;97822.84;;;2.44;86.01
5062;BME280;2351;50.812;12.872;2023-04-26T02:33:47;97820.91;;;2.47;85.92
5062;BME280;2351;50.812;12.872;2023-04-26T02:36:19;97819.91;;;2.50;86.09
5062;BME280;2351;50.812;12.872;2023-04-26T02:38:52;97825.03;;;2.51;86.39
5062;BME280;2351;50.812;12.872;2023-04-26T02:41:24;97819.75;;;2.53;86.21
5062;BME280;2351;50.812;12.872;2023-04-26T02:43:55;97816.28;;;2.52;86.58
5062;BME280;2351;50.812;12.872;2023-04-26T02:46:27;97814.59;;;2.51;86.74
5062;BME280;2351;50.812;12.872;2023-04-26T02:48:59;97812.22;;;2.47;86.82
5062;BME280;2351;50.812;12.872;2023-04-26T02:51:31;97813.22;;;2.44;86.86
5062;BME280;2351;50.812;12.872;2023-04-26T02:54:04;97822.19;;;2.40;86.51
5062;BME280;2351;50.812;12.872;2023-04-26T02:56:36;97816.09;;;2.39;87.05
5062;BME280;2351;50.812;12.872;2023-04-26T02:59:08;97819.03;;;2.33;87.08
5062;BME280;2351;50.812;12.872;2023-04-26T03:01:40;97828.75;;;2.31;87.52
5062;BME280;2351;50.812;12.872;2023-04-26T03:04:12;97827.22;;;2.27;87.91
5062;BME280;2351;50.812;12.872;2023-04-26T03:06:45;97828.91;;;2.28;87.42
5062;BME280;2351;50.812;12.872;2023-04-26T03:09:18;97830.75;;;2.26;88.16
5062;BME280;2351;50.812;12.872;2023-04-26T03:11:51;97819.41;;;2.27;88.47
5062;BME280;2351;50.812;12.872;2023-04-26T03:14:22;97821.09;;;2.28;88.92
5062;BME280;2351;50.812;12.872;2023-04-26T03:16:54;97822.94;;;2.26;88.31
5062;BME280;2351;50.812;12.872;2023-04-26T03:19:26;97820.38;;;2.24;89.19
5062;BME280;2351;50.812;12.872;2023-04-26T03:21:58;97823.91;;;2.23;88.60
5062;BME280;2351;50.812;12.872;2023-04-26T03:24:31;97819.97;;;2.16;88.68
5062;BME280;2351;50.812;12.872;2023-04-26T03:27:03;97824.34;;;2.16;88.84
5062;BME280;2351;50.812;12.872;2023-04-26T03:29:34;97818.34;;;2.14;88.87
5062;BME280;2351;50.812;12.872;2023-04-26T03:32:06;97816.00;;;2.09;88.92
5062;BME280;2351;50.812;12.872;2023-04-26T03:34:38;97819.69;;;2.05;88.78
5062;BME280;2351;50.812;12.872;2023-04-26T03:37:10;97818.25;;;1.99;88.78
5062;BME280;2351;50.812;12.872;2023-04-26T03:39:44;97825.47;;;1.94;89.30
5062;BME280;2351;50.812;12.872;2023-04-26T03:42:15;97827.31;;;1.92;89.27
5062;BME280;2351;50.812;12.872;2023-04-26T03:44:47;97817.91;;;1.89;89.16
5062;BME280;2351;50.812;12.872;2023-04-26T03:47:19;97823.19;;;1.88;89.07
5062;BME280;2351;50.812;12.872;2023-04-26T03:49:50;97826.19;;;1.80;88.79
5062;BME280;2351;50.812;12.872;2023-04-26T03:52:22;97826.28;;;1.78;88.87
5062;BME280;2351;50.812;12.872;2023-04-26T03:54:55;97835.06;;;1.77;88.67
5062;BME280;2351;50.812;12.872;2023-04-26T03:57:27;97830.13;;;1.71;89.26
5062;BME280;2351;50.812;12.872;2023-04-26T03:59:59;97831.97;;;1.69;89.19
5062;BME280;2351;50.812;12.872;2023-04-26T04:02:30;97831.06;;;1.70;89.00
5062;BME280;2351;50.812;12.872;2023-04-26T04:05:02;97840.41;;;1.74;89.18
5062;BME280;2351;50.812;12.872;2023-04-26T04:07:34;97834.19;;;1.77;88.87
5062;BME280;2351;50.812;12.872;2023-04-26T04:10:08;97835.88;;;1.78;89.31
5062;BME280;2351;50.812;12.872;2023-04-26T04:12:41;97830.59;;;1.79;89.25
5062;BME280;2351;50.812;12.872;2023-04-26T04:15:12;97836.59;;;1.82;89.13
5062;BME280;2351;50.812;12.872;2023-04-26T04:17:44;97841.66;;;1.85;89.21
5062;BME280;2351;50.812;12.872;2023-04-26T04:20:16;97836.25;;;1.88;89.21
5062;BME280;2351;50.812;12.872;2023-04-26T04:22:49;97840.03;;;1.82;89.43
5062;BME280;2351;50.812;12.872;2023-04-26T04:25:23;97848.78;;;1.81;89.89
5062;BME280;2351;50.812;12.872;2023-04-26T04:27:55;97846.31;;;1.78;90.32
5062;BME280;2351;50.812;12.872;2023-04-26T04:30:27;97850.72;;;1.77;89.91
5062;BME280;2351;50.812;12.872;2023-04-26T04:33:00;97852.56;;;1.75;90.39
5062;BME280;2351;50.812;12.872;2023-04-26T04:35:32;97855.06;;;1.77;90.60
5062;BME280;2351;50.812;12.872;2023-04-26T04:38:04;97855.00;;;1.78;91.64
5062;BME280;2351;50.812;12.872;2023-04-26T04:40:37;97853.16;;;1.80;92.01
5062;BME280;2351;50.812;12.872;2023-04-26T04:43:09;97859.22;;;1.81;91.89
5062;BME280;2351;50.812;12.872;2023-04-26T04:45:41;97866.13;;;1.82;92.44
5062;BME280;2351;50.812;12.872;2023-04-26T04:48:13;97869.44;;;1.86;92.58
5062;BME280;2351;50.812;12.872;2023-04-26T04:50:45;97871.69;;;1.92;93.59
5062;BME280;2351;50.812;12.872;2023-04-26T04:53:17;97880.81;;;2.01;94.02
5062;BME280;2351;50.812;12.872;2023-04-26T04:55:50;97874.88;;;2.15;94.50
5062;BME280;2351;50.812;12.872;2023-04-26T04:58:22;97874.72;;;2.18;94.26
5062;BME280;2351;50.812;12.872;2023-04-26T05:00:53;97870.88;;;2.25;94.37
5062;BME280;2351;50.812;12.872;2023-04-26T05:03:26;97872.97;;;2.34;94.00
5062;BME280;2351;50.812;12.872;2023-04-26T05:05:58;97882.44;;;2.37;93.71
5062;BME280;2351;50.812;12.872;2023-04-26T05:08:30;97884.19;;;2.52;94.45
5062;BME280;2351;50.812;12.872;2023-04-26T05:11:03;97884.53;;;2.62;93.69
5062;BME280;2351;50.812;12.872;2023-04-26T05:13:35;97880.69;;;2.69;92.70
5062;BME280;2351;50.812;12.872;2023-04-26T05:16:07;97893.06;;;2.82;93.16
5062;BME280;2351;50.812;12.872;2023-04-26T05:18:38;97890.28;;;2.85;92.50
5062;BME280;2351;50.812;12.872;2023-04-26T05:21:10;97895.19;;;2.91;91.90
5062;BME280;2351;50.812;12.872;2023-04-26T05:23:42;97891.84;;;3.04;91.55
5062;BME280;2351;50.812;12.872;2023-04-26T05:26:15;97898.72;;;3.06;90.81
5062;BME280;2351;50.812;12.872;2023-04-26T05:28:47;97899.03;;;3.16;90.00
5062;BME280;2351;50.812;12.872;2023-04-26T05:31:19;97901.53;;;3.17;88.82
5062;BME280;2351;50.812;12.872;2023-04-26T05:33:51;97904.44;;;3.13;87.06
5062;BME280;2351;50.812;12.872;2023-04-26T05:36:22;97903.22;;;3.19;86.71
5062;BME280;2351;50.812;12.872;2023-04-26T05:38:54;97908.19;;;3.23;85.01
5062;BME280;2351;50.812;12.872;2023-04-26T05:41:27;97904.91;;;3.36;85.62
5062;BME280;2351;50.812;12.872;2023-04-26T05:43:59;97909.34;;;3.50;84.72
5062;BME280;2351;50.812;12.872;2023-04-26T05:46:31;97911.59;;;3.56;83.74
5062;BME280;2351;50.812;12.872;2023-04-26T05:49:02;97916.31;;;3.80;85.18
5062;BME280;2351;50.812;12.872;2023-04-26T05:51:34;97918.88;;;3.96;83.76
5062;BME280;2351;50.812;12.872;2023-04-26T05:54:06;97916.00;;;4.15;82.86
5062;BME280;2351;50.812;12.872;2023-04-26T05:56:39;97917.94;;;4.11;77.91
5062;BME280;2351;50.812;12.872;2023-04-26T05:59:11;97927.13;;;4.33;79.42
5062;BME280;2351;50.812;12.872;2023-04-26T06:01:43;97923.19;;;4.55;77.77
5062;BME280;2351;50.812;12.872;2023-04-26T06:04:14;97921.88;;;4.62;77.45
5062;BME280;2351;50.812;12.872;2023-04-26T06:06:46;97916.50;;;4.92;79.10
5062;BME280;2351;50.812;12.872;2023-04-26T06:09:18;97915.66;;;4.92;77.66
5062;BME280;2351;50.812;12.872;2023-04-26T06:11:51;97918.78;;;5.11;73.21
5062;BME280;2351;50.812;12.872;2023-04-26T06:14:22;97917.22;;;5.36;73.83
5062;BME280;2351;50.812;12.872;2023-04-26T06:16:54;97917.59;;;5.70;74.88
5062;BME280;2351;50.812;12.872;2023-04-26T06:19:26;97916.03;;;5.68;69.75
5062;BME280;2351;50.812;12.872;2023-04-26T06:21:58;97924.44;;;5.86;73.11
5062;BME280;2351;50.812;12.872;2023-04-26T06:24:29;97915.38;;;6.17;66.30
5062;BME280;2351;50.812;12.872;2023-04-26T06:27:03;97925.38;;;6.38;70.05
5062;BME280;2351;50.812;12.872;2023-04-26T06:29:34;97922.34;;;5.78;64.59
5062;BME280;2351;50.812;12.872;2023-04-26T06:32:06;97921.03;;;5.45;64.75
5062;BME280;2351;50.812;12.872;2023-04-26T06:34:38;97929.81;;;4.89;67.20
5062;BME280;2351;50.812;12.872;2023-04-26T06:37:10;97915.38;;;5.24;70.83
5062;BME280;2351;50.812;12.872;2023-04-26T06:39:42;97924.91;;;5.93;71.60
5062;BME280;2351;50.812;12.872;2023-04-26T06:42:15;97931.28;;;5.35;64.80
5062;BME280;2351;50.812;12.872;2023-04-26T06:44:47;97924.59;;;5.17;66.08
5062;BME280;2351;50.812;12.872;2023-04-26T06:47:18;97935.63;;;4.80;66.14
5062;BME280;2351;50.812;12.872;2023-04-26T06:49:50;97934.16;;;4.47;66.94
5062;BME280;2351;50.812;12.872;2023-04-26T06:52:22;97938.28;;;4.36;67.59
5062;BME280;2351;50.812;12.872;2023-04-26T06:54:54;97940.91;;;4.51;67.37
5062;BME280;2351;50.812;12.872;2023-04-26T06:57:27;97939.13;;;4.66;68.57
5062;BME280;2351;50.812;12.872;2023-04-26T06:59:59;97941.34;;;4.87;68.39
5062;BME280;2351;50.812;12.872;2023-04-26T07:02:30;97945.53;;;4.89;67.11
5062;BME280;2351;50.812;12.872;2023-04-26T07:05:02;97933.69;;;4.69;66.86
5062;BME280;2351;50.812;12.872;2023-04-26T07:07:34;97940.97;;;4.78;67.92
5062;BME280;2351;50.812;12.872;2023-04-26T07:10:07;97936.19;;;4.71;67.73
5062;BME280;2351;50.812;12.872;2023-04-26T07:12:40;97936.56;;;5.21;69.25
5062;BME280;2351;50.812;12.872;2023-04-26T07:15:12;97930.47;;;5.48;64.94
5062;BME280;2351;50.812;12.872;2023-04-26T07:17:44;97931.84;;;5.26;64.52
5062;BME280;2351;50.812;12.872;2023-04-26T07:20:16;97929.44;;;5.23;64.19
5062;BME280;2351;50.812;12.872;2023-04-26T07:22:49;97939.97;;;5.36;64.70
5062;BME280;2351;50.812;12.872;2023-04-26T07:25:21;97938.44;;;5.46;64.84
5062;BME280;2351;50.812;12.872;2023-04-26T07:27:54;97943.94;;;5.56;63.16
5062;BME280;2351;50.812;12.872;2023-04-26T07:30:26;97937.31;;;6.29;63.36
5062;BME280;2351;50.812;12.872;2023-04-26T07:32:57;97936.50;;;6.16;61.15
5062;BME280;2351;50.812;12.872;2023-04-26T07:35:30;97941.16;;;5.98;59.66
5062;BME280;2351;50.812;12.872;2023-04-26T07:38:04;97924.50;;;6.25;62.83
5062;BME280;2351;50.812;12.872;2023-04-26T07:40:36;97943.84;;;6.62;57.92
5062;BME280;2351;50.812;12.872;2023-04-26T07:43:09;97949.88;;;5.85;58.18
5062;BME280;2351;50.812;12.872;2023-04-26T07:45:41;97940.47;;;5.28;61.09
5062;BME280;2351;50.812;12.872;2023-04-26T07:48:13;97943.69;;;5.19;61.84
5062;BME280;2351;50.812;12.872;2023-04-26T07:50:44;97945.03;;;5.11;61.99
5062;BME280;2351;50.812;12.872;2023-04-26T07:53:16;97954.28;;;5.17;62.07
5062;BME280;2351;50.812;12.872;2023-04-26T07:55:49;97948.28;;;5.42;61.86
5062;BME280;2351;50.812;12.872;2023-04-26T07:58:23;97942.16;;;5.56;61.69
5062;BME280;2351;50.812;12.872;2023-04-26T08:00:54;97947.44;;;5.69;61.85
5062;BME280;2351;50.812;12.872;2023-04-26T08:03:26;97947.69;;;5.52;60.65
5062;BME280;2351;50.812;12.872;2023-04-26T08:05:58;97944.56;;;5.60;61.33
5062;BME280;2351;50.812;12.872;2023-04-26T08:08:30;97949.63;;;6.03;63.54
5062;BME280;2351;50.812;12.872;2023-04-26T08:11:06;97953.53;;;6.49;62.28
5062;BME280;2351;50.812;12.872;2023-04-26T08:13:39;97941.84;;;6.40;59.58
5062;BME280;2351;50.812;12.872;2023-04-26T08:16:13;97949.13;;;6.50;59.28
5062;BME280;2351;50.812;12.872;2023-04-26T08:18:45;97941.75;;;6.29;56.64
5062;BME280;2351;50.812;12.872;2023-04-26T08:21:17;97948.91;;;5.73;57.92
5062;BME280;2351;50.812;12.872;2023-04-26T08:23:48;97956.22;;;5.55;57.58
5062;BME280;2351;50.812;12.872;2023-04-26T08:26:20;97955.28;;;5.56;59.87
5062;BME280;2351;50.812;12.872;2023-04-26T08:28:53;97953.31;;;6.00;60.56
5062;BME280;2351;50.812;12.872;2023-04-26T08:31:26;97944.66;;;6.76;62.25
5062;BME280;2351;50.812;12.872;2023-04-26T08:33:58;97951.56;;;7.51;59.21
5062;BME280;2351;50.812;12.872;2023-04-26T08:36:29;97952.44;;;7.15;54.03
5062;BME280;2351;50.812;12.872;2023-04-26T08:39:02;97949.47;;;6.95;51.26
5062;BME280;2351;50.812;12.872;2023-04-26T08:41:37;97957.84;;;6.24;52.84
5062;BME280;2351;50.812;12.872;2023-04-26T08:44:13;97961.03;;;5.89;53.47
5062;BME280;2351;50.812;12.872;2023-04-26T08:46:53;97961.44;;;5.83;55.14
5062;BME280;2351;50.812;12.872;2023-04-26T08:49:32;97959.25;;;5.49;56.91
5062;BME280;2351;50.812;12.872;2023-04-26T08:52:11;97967.00;;;4.96;56.67
5062;BME280;2351;50.812;12.872;2023-04-26T08:54:45;97966.81;;;4.85;58.34
5062;BME280;2351;50.812;12.872;2023-04-26T08:57:17;97963.72;;;5.34;59.91
5062;BME280;2351;50.812;12.872;2023-04-26T08:59:50;97958.72;;;5.84;59.69
5062;BME280;2351;50.812;12.872;2023-04-26T09:02:22;97974.34;;;6.00;59.06
5062;BME280;2351;50.812;12.872;2023-04-26T09:04:54;97963.63;;;6.03;57.02
5062;BME280;2351;50.812;12.872;2023-04-26T09:07:29;97971.59;;;6.15;57.05
5062;BME280;2351;50.812;12.872;2023-04-26T09:10:03;97966.75;;;6.09;56.79
5062;BME280;2351;50.812;12.872;2023-04-26T09:12:35;97969.44;;;5.94;55.94
5062;BME280;2351;50.812;12.872;2023-04-26T09:15:09;97970.78;;;5.87;56.85
5062;BME280;2351;50.812;12.872;2023-04-26T09:17:41;97966.06;;;5.92;57.62
5062;BME280;2351;50.812;12.872;2023-04-26T09:20:20;97963.81;;;6.00;58.27
5062;BME280;2351;50.812;12.872;2023-04-26T09:22:53;97968.75;;;6.05;58.18
5062;BME280;2351;50.812;12.872;2023-04-26T09:25:35;97965.31;;;6.05;57.53
5062;BME280;2351;50.812;12.872;2023-04-26T09:28:18;97964.00;;;5.97;54.63
5062;BME280;2351;50.812;12.872;2023-04-26T09:30:51;97962.13;;;5.59;53.89
5062;BME280;2351;50.812;12.872;2023-04-26T09:33:23;97967.03;;;5.91;55.31
5062;BME280;2351;50.812;12.872;2023-04-26T09:36:09;97960.56;;;6.10;55.52
5062;BME280;2351;50.812;12.872;2023-04-26T09:38:41;97961.72;;;6.44;55.95
5062;BME280;2351;50.812;12.872;2023-04-26T09:41:13;97954.78;;;6.56;53.75
5062;BME280;2351;50.812;12.872;2023-04-26T09:43:45;97958.03;;;6.73;55.56
5062;BME280;2351;50.812;12.872;2023-04-26T09:46:22;97960.13;;;7.42;56.08
5062;BME280;2351;50.812;12.872;2023-04-26T09:49:00;97958.78;;;7.85;55.08
5062;BME280;2351;50.812;12.872;2023-04-26T09:51:32;97963.66;;;8.14;54.51
5062;BME280;2351;50.812;12.872;2023-04-26T09:54:04;97954.66;;;8.05;51.12
5062;BME280;2351;50.812;12.872;2023-04-26T09:56:36;97962.63;;;7.92;51.16
5062;BME280;2351;50.812;12.872;2023-04-26T09:59:08;97963.66;;;7.78;50.88
5062;BME280;2351;50.812;12.872;2023-04-26T10:01:42;97957.13;;;7.35;47.20
5062;BME280;2351;50.812;12.872;2023-04-26T10:04:14;97956.00;;;6.89;48.04
5062;BME280;2351;50.812;12.872;2023-04-26T10:06:45;97961.97;;;7.04;49.10
5062;BME280;2351;50.812;12.872;2023-04-26T10:09:17;97954.75;;;6.82;48.80
5062;BME280;2351;50.812;12.872;2023-04-26T10:11:49;97957.31;;;6.71;48.77
5062;BME280;2351;50.812;12.872;2023-04-26T10:14:21;97961.31;;;6.63;49.38
5062;BME280;2351;50.812;12.872;2023-04-26T10:16:54;97959.19;;;6.69;50.64
5062;BME280;2351;50.812;12.872;2023-04-26T10:19:28;97958.88;;;6.60;49.65
5062;BME280;2351;50.812;12.872;2023-04-26T10:22:03;97960.91;;;6.44;50.15
5062;BME280;2351;50.812;12.872;2023-04-26T10:24:36;97958.56;;;6.52;50.26
5062;BME280;2351;50.812;12.872;2023-04-26T10:27:08;97958.16;;;6.32;50.49
5062;BME280;2351;50.812;12.872;2023-04-26T10:30:05;97955.84;;;6.41;50.12
5062;BME280;2351;50.812;12.872;2023-04-26T10:36:05;97942.16;;;7.36;50.56
5062;BME280;2351;50.812;12.872;2023-04-26T10:38:39;97946.13;;;7.66;46.82
5062;BME280;2351;50.812;12.872;2023-04-26T10:41:27;97952.22;;;7.42;46.05
5062;BME280;2351;50.812;12.872;2023-04-26T10:47:06;97948.22;;;7.49;46.38
5062;BME280;2351;50.812;12.872;2023-04-26T10:49:43;97953.44;;;7.38;46.54
5062;BME280;2351;50.812;12.872;2023-04-26T10:52:19;97960.09;;;7.31;47.88
5062;BME280;2351;50.812;12.872;2023-04-26T10:54:56;97955.47;;;6.97;48.40
5062;BME280;2351;50.812;12.872;2023-04-26T10:57:50;97954.75;;;6.69;49.90
5062;BME280;2351;50.812;12.872;2023-04-26T11:00:29;97956.00;;;6.89;50.86
5062;BME280;2351;50.812;12.872;2023-04-26T11:03:05;97952.34;;;7.16;50.40
5062;BME280;2351;50.812;12.872;2023-04-26T11:05:50;97961.34;;;7.38;49.99
5062;BME280;2351;50.812;12.872;2023-04-26T11:08:28;97945.63;;;7.61;50.35
5062;BME280;2351;50.812;12.872;2023-04-26T11:11:09;97945.00;;;7.57;49.31
5062;BME280;2351;50.812;12.872;2023-04-26T11:13:42;97946.53;;;7.48;48.62
5062;BME280;2351;50.812;12.872;2023-04-26T11:16:15;97941.78;;;7.53;48.77
5062;BME280;2351;50.812;12.872;2023-04-26T11:18:47;97936.91;;;7.36;47.31
5062;BME280;2351;50.812;12.872;2023-04-26T11:21:20;97953.03;;;7.31;48.23
5062;BME280;2351;50.812;12.872;2023-04-26T11:23:53;97944.75;;;7.49;48.75
5062;BME280;2351;50.812;12.872;2023-04-26T11:26:31;97942.75;;;7.64;47.91
5062;BME280;2351;50.812;12.872;2023-04-26T11:29:06;97945.00;;;7.81;48.35
5062;BME280;2351;50.812;12.872;2023-04-26T11:31:38;97936.47;;;8.25;48.12
5062;BME280;2351;50.812;12.872;2023-04-26T11:34:10;97929.78;;;8.78;48.64
5062;BME280;2351;50.812;12.872;2023-04-26T11:36:43;97937.91;;;9.09;44.50
5062;BME280;2351;50.812;12.872;2023-04-26T11:39:18;97929.41;;;9.49;44.34
5062;BME280;2351;50.812;12.872;2023-04-26T11:41:50;97920.00;;;9.56;41.61
5062;BME280;2351;50.812;12.872;2023-04-26T11:44:26;97928.28;;;9.19;40.90
5062;BME280;2351;50.812;12.872;2023-04-26T11:46:59;97927.56;;;9.17;41.15
5062;BME280;2351;50.812;12.872;2023-04-26T11:49:35;97920.06;;;8.89;41.98
5062;BME280;2351;50.812;12.872;2023-04-26T11:52:07;97929.31;;;8.72;42.25
5062;BME280;2351;50.812;12.872;2023-04-26T11:54:41;97929.50;;;8.35;42.36
5062;BME280;2351;50.812;12.872;2023-04-26T11:57:14;97937.44;;;8.35;43.09
5062;BME280;2351;50.812;12.872;2023-04-26T11:59:46;97940.16;;;8.11;44.09
5062;BME280;2351;50.812;12.872;2023-04-26T12:02:22;97935.66;;;7.89;44.46
5062;BME280;2351;50.812;12.872;2023-04-26T12:04:57;97938.03;;;7.45;45.94
5062;BME280;2351;50.812;12.872;2023-04-26T12:07:36;97941.63;;;7.55;46.44
5062;BME280;2351;50.812;12.872;2023-04-26T12:10:17;97950.22;;;7.70;46.82
5062;BME280;2351;50.812;12.872;2023-04-26T12:12:50;97945.38;;;7.64;46.49
5062;BME280;2351;50.812;12.872;2023-04-26T12:15:23;97948.88;;;7.40;47.12
5062;BME280;2351;50.812;12.872;2023-04-26T12:17:57;97947.09;;;7.16;48.72
5062;BME280;2351;50.812;12.872;2023-04-26T12:20:30;97942.25;;;7.10;48.35
5062;BME280;2351;50.812;12.872;2023-04-26T12:23:06;97945.59;;;7.25;49.83
5062;BME280;2351;50.812;12.872;2023-04-26T12:25:40;97940.38;;;8.08;49.97
5062;BME280;2351;50.812;12.872;2023-04-26T12:28:12;97940.94;;;8.70;49.58
5062;BME280;2351;50.812;12.872;2023-04-26T12:30:44;97929.06;;;8.87;45.86
5062;BME280;2351;50.812;12.872;2023-04-26T12:33:16;97928.59;;;8.82;44.90
5062;BME280;2351;50.812;12.872;2023-04-26T12:35:52;97925.72;;;8.85;44.54
5062;BME280;2351;50.812;12.872;2023-04-26T12:38:23;97933.38;;;8.42;44.00
5062;BME280;2351;50.812;12.872;2023-04-26T12:40:56;97937.44;;;8.47;45.16
5062;BME280;2351;50.812;12.872;2023-04-26T12:43:28;97941.09;;;8.68;45.74
5062;BME280;2351;50.812;12.872;2023-04-26T12:46:00;97929.56;;;8.81;44.81
5062;BME280;2351;50.812;12.872;2023-04-26T12:48:31;97938.31;;;8.70;44.79
5062;BME280;2351;50.812;12.872;2023-04-26T12:51:03;97939.38;;;8.90;44.97
5062;BME280;2351;50.812;12.872;2023-04-26T12:53:36;97932.56;;;8.76;43.37
5062;BME280;2351;50.812;12.872;2023-04-26T12:56:09;97930.75;;;8.88;44.22
5062;BME280;2351;50.812;12.872;2023-04-26T12:58:41;97933.59;;;8.96;44.02
5062;BME280;2351;50.812;12.872;2023-04-26T13:01:12;97931.91;;;8.95;44.11
5062;BME280;2351;50.812;12.872;2023-04-26T13:03:44;97937.72;;;8.66;43.68
5062;BME280;2351;50.812;12.872;2023-04-26T13:06:16;97937.97;;;8.63;44.05
5062;BME280;2351;50.812;12.872;2023-04-26T13:08:48;97940.97;;;8.58;44.03
5062;BME280;2351;50.812;12.872;2023-04-26T13:11:21;97940.16;;;8.22;44.32
5062;BME280;2351;50.812;12.872;2023-04-26T13:13:53;97951.84;;;7.95;44.45
5062;BME280;2351;50.812;12.872;2023-04-26T13:16:24;97947.44;;;7.96;45.55
5062;BME280;2351;50.812;12.872;2023-04-26T13:18:56;97940.53;;;8.18;45.52
5062;BME280;2351;50.812;12.872;2023-04-26T13:21:28;97936.44;;;8.13;45.93
5062;BME280;2351;50.812;12.872;2023-04-26T13:23:59;97938.66;;;7.95;45.34
5062;BME280;2351;50.812;12.872;2023-04-26T13:26:32;97938.44;;;7.63;45.58
5062;BME280;2351;50.812;12.872;2023-04-26T13:29:04;97940.13;;;7.64;45.34
5062;BME280;2351;50.812;12.872;2023-04-26T13:31:36;97940.59;;;7.58;45.75
5062;BME280;2351;50.812;12.872;2023-04-26T13:34:09;97932.41;;;7.49;45.85
5062;BME280;2351;50.812;12.872;2023-04-26T13:36:42;97938.91;;;7.57;46.59
5062;BME280;2351;50.812;12.872;2023-04-26T13:39:14;97935.56;;;7.54;46.61
5062;BME280;2351;50.812;12.872;2023-04-26T13:41:47;97942.31;;;7.70;46.64
5062;BME280;2351;50.812;12.872;2023-04-26T13:44:19;97947.44;;;8.07;46.89
5062;BME280;2351;50.812;12.872;2023-04-26T13:46:53;97946.16;;;8.13;44.66
5062;BME280;2351;50.812;12.872;2023-04-26T13:49:25;97955.63;;;8.16;44.84
5062;BME280;2351;50.812;12.872;2023-04-26T13:51:57;97952.91;;;7.81;43.37
5062;BME280;2351;50.812;12.872;2023-04-26T13:54:29;97949.38;;;7.69;44.36
5062;BME280;2351;50.812;12.872;2023-04-26T13:57:03;97957.38;;;7.92;44.86
5062;BME280;2351;50.812;12.872;2023-04-26T13:59:35;97955.84;;;8.12;45.29